sensor_id;sensor_type;location;lat;lon;timestamp;pressure;altitude;pressure_sealevel;temperature;humidity
36932;BME280;22847;42.654;23.370;2023-05-12T00:01:10;94973.28;;;10.17;70.25
36932;BME280;22847;42.654;23.370;2023-05-12T00:03:37;94948.91;;;9.97;70.75
36932;BME280;22847;42.654;23.370;2023-05-12T00:06:02;94941.94;;;9.98;70.74
36932;BME280;22847;42.654;23.370;2023-05-12T00:08:29;94957.72;;;10.06;71.01
36932;BME280;22847;42.654;23.370;2023-05-12T00:10:55;94790.47;;;9.14;70.49
36932;BME280;22847;42.654;23.370;2023-05-12T00:13:20;94919.69;;;9.84;70.48
36932;BME280;22847;42.654;23.370;2023-05-12T00:15:49;94922.59;;;10.00;70.11
36932;BME280;22847;42.654;23.370;2023-05-12T00:18:14;94926.97;;;9.80;71.17
36932;BME280;22847;42.654;23.370;2023-05-12T00:20:40;94957.56;;;9.98;71.42
36932;BME280;22847;42.654;23.370;2023-05-12T00:23:05;94915.06;;;9.97;70.71
36932;BME280;22847;42.654;23.370;2023-05-12T00:25:31;94946.22;;;10.08;69.96
36932;BME280;22847;42.654;23.370;2023-05-12T00:27:57;94940.47;;;9.65;71.64
36932;BME280;22847;42.654;23.370;2023-05-12T00:30:22;94869.22;;;9.16;72.33
36932;BME280;22847;42.654;23.370;2023-05-12T00:32:47;94936.03;;;9.56;72.57
36932;BME280;22847;42.654;23.370;2023-05-12T00:35:14;94780.16;;;8.93;71.76
36932;BME280;22847;42.654;23.370;2023-05-12T00:37:40;94926.81;;;9.82;71.66
36932;BME280;22847;42.654;23.370;2023-05-12T00:40:06;94800.97;;;8.42;73.46
36932;BME280;22847;42.654;23.370;2023-05-12T00:42:33;94865.53;;;9.28;72.96
36932;BME280;22847;42.654;23.370;2023-05-12T00:44:59;94935.56;;;9.71;73.10
36932;BME280;22847;42.654;23.370;2023-05-12T00:47:24;94920.97;;;9.50;72.76
36932;BME280;22847;42.654;23.370;2023-05-12T00:49:50;94778.56;;;8.72;72.78
36932;BME280;22847;42.654;23.370;2023-05-12T00:52:15;94898.97;;;9.73;72.50
36932;BME280;22847;42.654;23.370;2023-05-12T00:54:41;94953.28;;;9.87;73.07
36932;BME280;22847;42.654;23.370;2023-05-12T00:57:07;94935.13;;;9.66;73.88
36932;BME280;22847;42.654;23.370;2023-05-12T00:59:33;94930.56;;;9.19;74.33
36932;BME280;22847;42.654;23.370;2023-05-12T01:01:58;94933.25;;;9.38;74.96
36932;BME280;22847;42.654;23.370;2023-05-12T01:04:24;94928.78;;;9.59;74.65
36932;BME280;22847;42.654;23.370;2023-05-12T01:06:55;94974.31;;;9.65;75.38
36932;BME280;22847;42.654;23.370;2023-05-12T01:09:22;94986.47;;;9.55;76.47
36932;BME280;22847;42.654;23.370;2023-05-12T01:11:48;94991.28;;;9.59;76.65
36932;BME280;22847;42.654;23.370;2023-05-12T01:14:13;94966.00;;;9.40;76.60
36932;BME280;22847;42.654;23.370;2023-05-12T01:16:43;94954.13;;;9.17;77.46
36932;BME280;22847;42.654;23.370;2023-05-12T01:19:23;94946.69;;;9.13;77.68
36932;BME280;22847;42.654;23.370;2023-05-12T01:21:55;94853.16;;;8.50;78.05
36932;BME280;22847;42.654;23.370;2023-05-12T01:24:23;94963.72;;;9.57;76.39
36932;BME280;22847;42.654;23.370;2023-05-12T01:26:50;94909.78;;;9.28;75.93
36932;BME280;22847;42.654;23.370;2023-05-12T01:29:16;94948.78;;;8.98;77.02
36932;BME280;22847;42.654;23.370;2023-05-12T01:31:42;94980.66;;;9.41;76.94
36932;BME280;22847;42.654;23.370;2023-05-12T01:34:14;94978.16;;;9.30;78.21
36932;BME280;22847;42.654;23.370;2023-05-12T01:36:40;94877.88;;;8.45;77.89
36932;BME280;22847;42.654;23.370;2023-05-12T01:39:05;94969.34;;;8.80;78.97
36932;BME280;22847;42.654;23.370;2023-05-12T01:41:30;94952.47;;;9.16;78.63
36932;BME280;22847;42.654;23.370;2023-05-12T01:43:56;94967.72;;;9.30;78.13
36932;BME280;22847;42.654;23.370;2023-05-12T01:46:21;95001.38;;;9.22;78.66
36932;BME280;22847;42.654;23.370;2023-05-12T01:48:46;94959.66;;;9.33;78.50
36932;BME280;22847;42.654;23.370;2023-05-12T01:51:12;95007.03;;;9.27;78.58
36932;BME280;22847;42.654;23.370;2023-05-12T01:53:37;94968.84;;;9.37;78.58
36932;BME280;22847;42.654;23.370;2023-05-12T01:56:03;94937.00;;;8.94;79.28
36932;BME280;22847;42.654;23.370;2023-05-12T01:58:28;95000.03;;;9.07;80.67
36932;BME280;22847;42.654;23.370;2023-05-12T02:00:53;94971.00;;;9.02;80.83
36932;BME280;22847;42.654;23.370;2023-05-12T02:03:19;94965.28;;;8.87;80.65
36932;BME280;22847;42.654;23.370;2023-05-12T02:05:44;94966.00;;;8.89;81.42
36932;BME280;22847;42.654;23.370;2023-05-12T02:08:10;94803.69;;;7.79;80.72
36932;BME280;22847;42.654;23.370;2023-05-12T02:10:36;94982.09;;;8.83;81.69
36932;BME280;22847;42.654;23.370;2023-05-12T02:13:01;94922.34;;;8.31;81.96
36932;BME280;22847;42.654;23.370;2023-05-12T02:15:27;94961.72;;;8.88;81.64
36932;BME280;22847;42.654;23.370;2023-05-12T02:17:52;94951.16;;;8.80;81.84
36932;BME280;22847;42.654;23.370;2023-05-12T02:20:18;94958.31;;;8.88;81.43
36932;BME280;22847;42.654;23.370;2023-05-12T02:22:44;94834.97;;;7.98;81.97
36932;BME280;22847;42.654;23.370;2023-05-12T02:25:09;94984.50;;;8.43;84.52
36932;BME280;22847;42.654;23.370;2023-05-12T02:27:35;94791.38;;;7.81;83.17
36932;BME280;22847;42.654;23.370;2023-05-12T02:30:00;94782.66;;;7.82;83.33
36932;BME280;22847;42.654;23.370;2023-05-12T02:32:25;94834.47;;;7.83;85.03
36932;BME280;22847;42.654;23.370;2023-05-12T02:34:54;94872.88;;;8.21;84.35
36932;BME280;22847;42.654;23.370;2023-05-12T02:37:20;94887.88;;;7.86;87.82
36932;BME280;22847;42.654;23.370;2023-05-12T02:39:45;94961.59;;;8.69;86.34
36932;BME280;22847;42.654;23.370;2023-05-12T02:42:11;94941.25;;;8.11;88.01
36932;BME280;22847;42.654;23.370;2023-05-12T02:44:36;94928.09;;;8.34;86.18
36932;BME280;22847;42.654;23.370;2023-05-12T02:47:02;94950.47;;;8.15;86.16
36932;BME280;22847;42.654;23.370;2023-05-12T02:49:28;94838.81;;;7.83;85.33
36932;BME280;22847;42.654;23.370;2023-05-12T02:51:53;94978.66;;;8.30;86.53
36932;BME280;22847;42.654;23.370;2023-05-12T02:54:19;94764.66;;;7.37;85.75
36932;BME280;22847;42.654;23.370;2023-05-12T02:56:44;94802.88;;;7.99;83.56
36932;BME280;22847;42.654;23.370;2023-05-12T02:59:10;94841.41;;;8.15;84.33
36932;BME280;22847;42.654;23.370;2023-05-12T03:01:36;94766.25;;;7.60;84.06
36932;BME280;22847;42.654;23.370;2023-05-12T03:04:01;94977.56;;;8.65;84.80
36932;BME280;22847;42.654;23.370;2023-05-12T03:06:28;94908.09;;;8.67;83.47
36932;BME280;22847;42.654;23.370;2023-05-12T03:08:53;94802.59;;;8.02;84.03
36932;BME280;22847;42.654;23.370;2023-05-12T03:11:20;94842.63;;;7.99;85.40
36932;BME280;22847;42.654;23.370;2023-05-12T03:13:46;94961.03;;;8.34;86.95
36932;BME280;22847;42.654;23.370;2023-05-12T03:16:12;94927.97;;;8.36;87.61
36932;BME280;22847;42.654;23.370;2023-05-12T03:18:37;94946.00;;;8.69;86.40
36932;BME280;22847;42.654;23.370;2023-05-12T03:21:03;94943.38;;;8.17;87.46
36932;BME280;22847;42.654;23.370;2023-05-12T03:23:28;94842.69;;;7.45;88.84
36932;BME280;22847;42.654;23.370;2023-05-12T03:25:54;94971.81;;;8.61;87.70
36932;BME280;22847;42.654;23.370;2023-05-12T03:28:19;94975.56;;;8.25;89.53
36932;BME280;22847;42.654;23.370;2023-05-12T03:30:47;94958.19;;;7.94;90.20
36932;BME280;22847;42.654;23.370;2023-05-12T03:33:12;94933.81;;;7.74;90.81
36932;BME280;22847;42.654;23.370;2023-05-12T03:35:38;94987.47;;;7.96;92.45
36932;BME280;22847;42.654;23.370;2023-05-12T03:38:03;94985.25;;;8.34;90.27
36932;BME280;22847;42.654;23.370;2023-05-12T03:40:29;94979.84;;;8.37;89.88
36932;BME280;22847;42.654;23.370;2023-05-12T03:42:55;94961.06;;;7.69;92.07
36932;BME280;22847;42.654;23.370;2023-05-12T03:45:20;94996.31;;;8.47;89.16
36932;BME280;22847;42.654;23.370;2023-05-12T03:47:46;94964.84;;;8.30;87.86
36932;BME280;22847;42.654;23.370;2023-05-12T03:50:11;94996.38;;;8.36;88.88
36932;BME280;22847;42.654;23.370;2023-05-12T03:52:37;94987.56;;;8.48;88.93
36932;BME280;22847;42.654;23.370;2023-05-12T03:55:05;94981.09;;;8.00;90.76
36932;BME280;22847;42.654;23.370;2023-05-12T03:57:32;94980.13;;;8.76;87.50
36932;BME280;22847;42.654;23.370;2023-05-12T03:59:58;94953.72;;;8.28;88.16
36932;BME280;22847;42.654;23.370;2023-05-12T04:02:24;94994.72;;;8.35;89.86
36932;BME280;22847;42.654;23.370;2023-05-12T04:04:49;94992.41;;;8.53;88.77
36932;BME280;22847;42.654;23.370;2023-05-12T04:07:15;94818.34;;;7.69;87.34
36932;BME280;22847;42.654;23.370;2023-05-12T04:09:40;95014.84;;;8.54;87.25
36932;BME280;22847;42.654;23.370;2023-05-12T04:12:06;94977.41;;;8.77;86.24
36932;BME280;22847;42.654;23.370;2023-05-12T04:14:31;94971.25;;;8.99;86.78
36932;BME280;22847;42.654;23.370;2023-05-12T04:16:57;94992.81;;;9.31;85.53
36932;BME280;22847;42.654;23.370;2023-05-12T04:19:22;95003.41;;;8.98;86.64
36932;BME280;22847;42.654;23.370;2023-05-12T04:21:48;95014.50;;;8.47;87.49
36932;BME280;22847;42.654;23.370;2023-05-12T04:24:13;95009.88;;;9.04;86.42
36932;BME280;22847;42.654;23.370;2023-05-12T04:26:39;95024.34;;;8.65;87.47
36932;BME280;22847;42.654;23.370;2023-05-12T04:29:04;94963.22;;;8.18;88.26
36932;BME280;22847;42.654;23.370;2023-05-12T04:31:30;95010.66;;;8.94;86.73
36932;BME280;22847;42.654;23.370;2023-05-12T04:33:55;95003.94;;;9.13;85.71
36932;BME280;22847;42.654;23.370;2023-05-12T04:36:21;94980.13;;;8.55;87.18
36932;BME280;22847;42.654;23.370;2023-05-12T04:38:47;94822.03;;;7.55;86.47
36932;BME280;22847;42.654;23.370;2023-05-12T04:41:12;94892.75;;;8.43;85.39
36932;BME280;22847;42.654;23.370;2023-05-12T04:43:38;94939.03;;;8.49;85.32
36932;BME280;22847;42.654;23.370;2023-05-12T04:46:03;95000.22;;;9.15;84.89
36932;BME280;22847;42.654;23.370;2023-05-12T04:48:29;94843.47;;;8.32;83.87
36932;BME280;22847;42.654;23.370;2023-05-12T04:50:57;94856.56;;;8.30;83.47
36932;BME280;22847;42.654;23.370;2023-05-12T04:53:23;94990.97;;;8.81;85.93
36932;BME280;22847;42.654;23.370;2023-05-12T04:55:49;94998.69;;;8.92;85.82
36932;BME280;22847;42.654;23.370;2023-05-12T04:58:15;94845.91;;;8.01;85.69
36932;BME280;22847;42.654;23.370;2023-05-12T05:00:41;94995.03;;;9.15;84.44
36932;BME280;22847;42.654;23.370;2023-05-12T05:03:06;95036.13;;;8.48;88.03
36932;BME280;22847;42.654;23.370;2023-05-12T05:05:32;94860.53;;;7.82;87.73
36932;BME280;22847;42.654;23.370;2023-05-12T05:07:57;95018.03;;;8.78;87.56
36932;BME280;22847;42.654;23.370;2023-05-12T05:10:23;94860.19;;;7.75;87.02
36932;BME280;22847;42.654;23.370;2023-05-12T05:12:48;95011.25;;;8.66;87.70
36932;BME280;22847;42.654;23.370;2023-05-12T05:15:14;95028.47;;;8.35;88.91
36932;BME280;22847;42.654;23.370;2023-05-12T05:17:39;94986.56;;;8.61;87.43
36932;BME280;22847;42.654;23.370;2023-05-12T05:20:07;94972.50;;;8.84;86.71
36932;BME280;22847;42.654;23.370;2023-05-12T05:22:33;95030.94;;;9.01;85.73
36932;BME280;22847;42.654;23.370;2023-05-12T05:24:58;95030.63;;;8.94;86.56
36932;BME280;22847;42.654;23.370;2023-05-12T05:27:24;95033.34;;;8.92;86.52
36932;BME280;22847;42.654;23.370;2023-05-12T05:29:49;95045.59;;;9.02;86.88
36932;BME280;22847;42.654;23.370;2023-05-12T05:32:15;95023.06;;;9.12;85.68
36932;BME280;22847;42.654;23.370;2023-05-12T05:34:40;94938.53;;;8.12;88.04
36932;BME280;22847;42.654;23.370;2023-05-12T05:37:06;95003.78;;;8.41;88.54
36932;BME280;22847;42.654;23.370;2023-05-12T05:39:31;95033.19;;;8.41;88.30
36932;BME280;22847;42.654;23.370;2023-05-12T05:41:57;94831.75;;;7.31;89.36
36932;BME280;22847;42.654;23.370;2023-05-12T05:44:23;95007.81;;;8.34;90.82
36932;BME280;22847;42.654;23.370;2023-05-12T05:46:49;95023.88;;;8.71;89.32
36932;BME280;22847;42.654;23.370;2023-05-12T05:49:15;95008.44;;;8.58;89.21
36932;BME280;22847;42.654;23.370;2023-05-12T05:51:40;94990.72;;;8.63;88.68
36932;BME280;22847;42.654;23.370;2023-05-12T05:54:05;94987.97;;;8.65;88.64
36932;BME280;22847;42.654;23.370;2023-05-12T05:56:31;95031.63;;;9.23;86.42
36932;BME280;22847;42.654;23.370;2023-05-12T05:58:57;95040.19;;;8.73;88.03
36932;BME280;22847;42.654;23.370;2023-05-12T06:01:27;94851.72;;;7.19;89.86
36932;BME280;22847;42.654;23.370;2023-05-12T06:03:53;95034.91;;;8.84;88.09
36932;BME280;22847;42.654;23.370;2023-05-12T06:06:18;94996.59;;;8.33;88.00
36932;BME280;22847;42.654;23.370;2023-05-12T06:08:43;95028.84;;;9.15;87.35
36932;BME280;22847;42.654;23.370;2023-05-12T06:11:09;94885.50;;;7.40;89.48
36932;BME280;22847;42.654;23.370;2023-05-12T06:13:34;95015.22;;;8.49;89.68
36932;BME280;22847;42.654;23.370;2023-05-12T06:16:00;95002.38;;;8.37;90.43
36932;BME280;22847;42.654;23.370;2023-05-12T06:18:26;95009.47;;;8.67;87.98
36932;BME280;22847;42.654;23.370;2023-05-12T06:20:51;95037.28;;;9.28;86.53
36932;BME280;22847;42.654;23.370;2023-05-12T06:23:17;94892.19;;;8.39;84.57
36932;BME280;22847;42.654;23.370;2023-05-12T06:25:42;95042.53;;;9.38;84.67
36932;BME280;22847;42.654;23.370;2023-05-12T06:28:08;95053.56;;;9.10;84.68
36932;BME280;22847;42.654;23.370;2023-05-12T06:30:33;95043.94;;;9.01;85.17
36932;BME280;22847;42.654;23.370;2023-05-12T06:32:59;95043.88;;;8.91;85.58
36932;BME280;22847;42.654;23.370;2023-05-12T06:35:24;95054.03;;;8.94;86.08
36932;BME280;22847;42.654;23.370;2023-05-12T06:37:50;94797.59;;;7.57;85.73
36932;BME280;22847;42.654;23.370;2023-05-12T06:40:15;95060.75;;;9.38;84.25
36932;BME280;22847;42.654;23.370;2023-05-12T06:42:41;95054.28;;;9.32;84.00
36932;BME280;22847;42.654;23.370;2023-05-12T06:45:07;95070.19;;;8.77;86.17
36932;BME280;22847;42.654;23.370;2023-05-12T06:47:33;95087.16;;;9.13;85.55
36932;BME280;22847;42.654;23.370;2023-05-12T06:49:59;95007.53;;;9.21;84.55
36932;BME280;22847;42.654;23.370;2023-05-12T06:52:24;95061.00;;;9.76;82.74
36932;BME280;22847;42.654;23.370;2023-05-12T06:54:50;94891.59;;;8.57;81.90
36932;BME280;22847;42.654;23.370;2023-05-12T06:57:15;94798.50;;;7.99;82.24
36932;BME280;22847;42.654;23.370;2023-05-12T06:59:40;95064.28;;;9.78;80.30
36932;BME280;22847;42.654;23.370;2023-05-12T07:02:06;94983.69;;;9.16;80.41
36932;BME280;22847;42.654;23.370;2023-05-12T07:04:31;95032.34;;;9.25;81.69
36932;BME280;22847;42.654;23.370;2023-05-12T07:06:57;95052.94;;;9.89;79.89
36932;BME280;22847;42.654;23.370;2023-05-12T07:09:22;95055.47;;;9.70;80.04
36932;BME280;22847;42.654;23.370;2023-05-12T07:11:48;95060.59;;;9.81;78.63
36932;BME280;22847;42.654;23.370;2023-05-12T07:14:13;95004.22;;;9.40;78.19
36932;BME280;22847;42.654;23.370;2023-05-12T07:16:39;95065.53;;;9.54;80.26
36932;BME280;22847;42.654;23.370;2023-05-12T07:19:04;95056.78;;;9.64;80.00
36932;BME280;22847;42.654;23.370;2023-05-12T07:21:30;95055.88;;;9.45;80.72
36932;BME280;22847;42.654;23.370;2023-05-12T07:23:56;94938.59;;;8.85;80.63
36932;BME280;22847;42.654;23.370;2023-05-12T07:26:21;95084.19;;;9.38;81.70
36932;BME280;22847;42.654;23.370;2023-05-12T07:28:48;94996.94;;;9.13;80.51
36932;BME280;22847;42.654;23.370;2023-05-12T07:31:14;95066.56;;;10.02;78.57
36932;BME280;22847;42.654;23.370;2023-05-12T07:33:39;94896.16;;;8.85;79.12
36932;BME280;22847;42.654;23.370;2023-05-12T07:36:05;95045.38;;;9.76;79.57
36932;BME280;22847;42.654;23.370;2023-05-12T07:38:32;95036.28;;;10.11;78.37
36932;BME280;22847;42.654;23.370;2023-05-12T07:40:58;94941.97;;;9.58;78.23
36932;BME280;22847;42.654;23.370;2023-05-12T07:43:24;94902.88;;;8.87;79.50
36932;BME280;22847;42.654;23.370;2023-05-12T07:45:50;94941.09;;;8.96;80.01
36932;BME280;22847;42.654;23.370;2023-05-12T07:48:15;95023.88;;;9.54;80.92
36932;BME280;22847;42.654;23.370;2023-05-12T07:50:41;95064.03;;;9.91;79.44
36932;BME280;22847;42.654;23.370;2023-05-12T07:53:06;95040.00;;;10.08;79.58
36932;BME280;22847;42.654;23.370;2023-05-12T07:55:32;95048.63;;;9.99;78.53
36932;BME280;22847;42.654;23.370;2023-05-12T07:57:58;94922.44;;;9.12;79.49
36932;BME280;22847;42.654;23.370;2023-05-12T08:00:24;94859.31;;;9.40;77.15
36932;BME280;22847;42.654;23.370;2023-05-12T08:02:49;95025.72;;;10.52;76.62
36932;BME280;22847;42.654;23.370;2023-05-12T08:05:15;95048.63;;;10.58;77.13
36932;BME280;22847;42.654;23.370;2023-05-12T08:07:41;95060.75;;;10.88;76.00
36932;BME280;22847;42.654;23.370;2023-05-12T08:10:09;95078.59;;;11.22;74.29
36932;BME280;22847;42.654;23.370;2023-05-12T08:12:35;95045.22;;;10.87;73.12
36932;BME280;22847;42.654;23.370;2023-05-12T08:15:00;95052.94;;;11.07;73.74
36932;BME280;22847;42.654;23.370;2023-05-12T08:17:26;95057.97;;;10.61;75.70
36932;BME280;22847;42.654;23.370;2023-05-12T08:19:51;95065.28;;;11.25;73.14
36932;BME280;22847;42.654;23.370;2023-05-12T08:22:17;95070.38;;;11.16;72.19
36932;BME280;22847;42.654;23.370;2023-05-12T08:24:42;95053.31;;;11.22;73.26
36932;BME280;22847;42.654;23.370;2023-05-12T08:27:07;95051.66;;;10.73;74.50
36932;BME280;22847;42.654;23.370;2023-05-12T08:29:33;95037.00;;;10.62;74.70
36932;BME280;22847;42.654;23.370;2023-05-12T08:31:58;95048.13;;;10.74;74.06
36932;BME280;22847;42.654;23.370;2023-05-12T08:34:24;94991.56;;;10.65;72.54
36932;BME280;22847;42.654;23.370;2023-05-12T08:36:53;95073.94;;;10.96;73.09
36932;BME280;22847;42.654;23.370;2023-05-12T08:39:19;95060.88;;;11.15;72.75
36932;BME280;22847;42.654;23.370;2023-05-12T08:41:55;94932.00;;;10.51;71.15
36932;BME280;22847;42.654;23.370;2023-05-12T08:44:26;95034.38;;;10.91;71.05
36932;BME280;22847;42.654;23.370;2023-05-12T08:46:53;95055.81;;;11.14;72.19
36932;BME280;22847;42.654;23.370;2023-05-12T08:49:21;95084.50;;;11.43;70.85
36932;BME280;22847;42.654;23.370;2023-05-12T08:51:49;95081.91;;;11.24;71.34
36932;BME280;22847;42.654;23.370;2023-05-12T08:54:18;95070.09;;;11.29;71.23
36932;BME280;22847;42.654;23.370;2023-05-12T08:56:45;95050.41;;;11.35;70.41
36932;BME280;22847;42.654;23.370;2023-05-12T08:59:11;95060.72;;;11.46;70.68
36932;BME280;22847;42.654;23.370;2023-05-12T09:01:37;95063.72;;;11.51;69.73
36932;BME280;22847;42.654;23.370;2023-05-12T09:04:07;95057.34;;;11.82;69.39
36932;BME280;22847;42.654;23.370;2023-05-12T09:06:33;95010.69;;;11.50;69.33
36932;BME280;22847;42.654;23.370;2023-05-12T09:08:58;95015.75;;;11.61;69.52
36932;BME280;22847;42.654;23.370;2023-05-12T09:11:24;95005.50;;;11.87;68.59
36932;BME280;22847;42.654;23.370;2023-05-12T09:14:03;95057.22;;;12.38;67.41
36932;BME280;22847;42.654;23.370;2023-05-12T09:16:32;95029.56;;;12.18;67.24
36932;BME280;22847;42.654;23.370;2023-05-12T09:18:59;95042.63;;;11.81;69.33
36932;BME280;22847;42.654;23.370;2023-05-12T09:21:26;95006.72;;;11.93;68.27
36932;BME280;22847;42.654;23.370;2023-05-12T09:23:52;94921.41;;;11.64;66.80
36932;BME280;22847;42.654;23.370;2023-05-12T09:26:18;95040.44;;;12.14;67.46
36932;BME280;22847;42.654;23.370;2023-05-12T09:28:43;95013.38;;;11.78;68.51
36932;BME280;22847;42.654;23.370;2023-05-12T09:31:23;95046.06;;;12.19;67.26
36932;BME280;22847;42.654;23.370;2023-05-12T09:33:50;95030.91;;;12.22;66.27
36932;BME280;22847;42.654;23.370;2023-05-12T09:36:20;95031.91;;;12.39;66.14
36932;BME280;22847;42.654;23.370;2023-05-12T09:38:46;95032.56;;;12.23;66.35
36932;BME280;22847;42.654;23.370;2023-05-12T09:41:22;95019.25;;;12.17;65.47
36932;BME280;22847;42.654;23.370;2023-05-12T09:43:48;94905.66;;;11.56;65.84
36932;BME280;22847;42.654;23.370;2023-05-12T09:46:16;94872.44;;;11.76;63.96
36932;BME280;22847;42.654;23.370;2023-05-12T09:48:41;94886.72;;;11.99;63.40
36932;BME280;22847;42.654;23.370;2023-05-12T09:51:09;94897.09;;;11.91;63.80
36932;BME280;22847;42.654;23.370;2023-05-12T09:53:40;94828.63;;;11.43;63.72
36932;BME280;22847;42.654;23.370;2023-05-12T09:56:07;95051.81;;;12.49;63.50
36932;BME280;22847;42.654;23.370;2023-05-12T09:58:32;94907.50;;;12.19;62.00
36932;BME280;22847;42.654;23.370;2023-05-12T10:00:58;95048.88;;;12.97;61.29
36932;BME280;22847;42.654;23.370;2023-05-12T10:03:25;95025.09;;;12.91;61.09
36932;BME280;22847;42.654;23.370;2023-05-12T10:05:59;95045.78;;;13.02;61.41
36932;BME280;22847;42.654;23.370;2023-05-12T10:08:32;94966.97;;;12.34;62.15
36932;BME280;22847;42.654;23.370;2023-05-12T10:10:58;95040.88;;;13.17;62.23
36932;BME280;22847;42.654;23.370;2023-05-12T10:13:27;94877.41;;;12.50;60.76
36932;BME280;22847;42.654;23.370;2023-05-12T10:15:55;94873.22;;;12.39;60.28
36932;BME280;22847;42.654;23.370;2023-05-12T10:18:21;94894.22;;;12.65;59.72
36932;BME280;22847;42.654;23.370;2023-05-12T10:20:48;94851.59;;;12.73;59.02
36932;BME280;22847;42.654;23.370;2023-05-12T10:23:17;95004.41;;;13.67;59.51
36932;BME280;22847;42.654;23.370;2023-05-12T10:25:43;94988.63;;;13.84;59.11
36932;BME280;22847;42.654;23.370;2023-05-12T10:28:09;95015.50;;;13.61;60.50
36932;BME280;22847;42.654;23.370;2023-05-12T10:30:39;94997.41;;;13.75;59.34
36932;BME280;22847;42.654;23.370;2023-05-12T10:33:05;95005.88;;;13.95;58.83
36932;BME280;22847;42.654;23.370;2023-05-12T10:35:38;94845.72;;;12.79;59.03
36932;BME280;22847;42.654;23.370;2023-05-12T10:38:08;94938.13;;;13.82;58.12
36932;BME280;22847;42.654;23.370;2023-05-12T10:40:34;94971.63;;;13.97;57.47
36932;BME280;22847;42.654;23.370;2023-05-12T10:42:59;94966.78;;;13.76;58.26
36932;BME280;22847;42.654;23.370;2023-05-12T10:45:25;94857.44;;;13.52;58.39
36932;BME280;22847;42.654;23.370;2023-05-12T10:47:51;94997.16;;;14.28;57.12
36932;BME280;22847;42.654;23.370;2023-05-12T10:50:26;94954.59;;;14.51;57.04
36932;BME280;22847;42.654;23.370;2023-05-12T10:52:55;94707.81;;;13.05;55.43
36932;BME280;22847;42.654;23.370;2023-05-12T10:55:32;94963.41;;;14.34;57.18
36932;BME280;22847;42.654;23.370;2023-05-12T10:58:24;94991.94;;;14.95;56.16
36932;BME280;22847;42.654;23.370;2023-05-12T11:00:50;94998.78;;;14.96;55.60
36932;BME280;22847;42.654;23.370;2023-05-12T11:03:21;94977.16;;;14.94;54.94
36932;BME280;22847;42.654;23.370;2023-05-12T11:05:57;94892.31;;;14.53;54.39
36932;BME280;22847;42.654;23.370;2023-05-12T11:08:23;94988.44;;;14.70;55.75
36932;BME280;22847;42.654;23.370;2023-05-12T11:10:49;94981.09;;;14.90;54.68
36932;BME280;22847;42.654;23.370;2023-05-12T11:13:15;94992.22;;;14.67;55.58
36932;BME280;22847;42.654;23.370;2023-05-12T11:15:43;94939.25;;;14.72;54.60
36932;BME280;22847;42.654;23.370;2023-05-12T11:18:08;95001.91;;;14.91;54.69
36932;BME280;22847;42.654;23.370;2023-05-12T11:20:34;94978.31;;;14.33;55.35
36932;BME280;22847;42.654;23.370;2023-05-12T11:23:00;94983.06;;;14.29;56.07
36932;BME280;22847;42.654;23.370;2023-05-12T11:25:26;94998.25;;;14.52;55.97
36932;BME280;22847;42.654;23.370;2023-05-12T11:27:52;95005.00;;;14.62;55.73
36932;BME280;22847;42.654;23.370;2023-05-12T11:30:18;94895.34;;;13.32;57.48
36932;BME280;22847;42.654;23.370;2023-05-12T11:32:44;95005.19;;;14.27;55.60
36932;BME280;22847;42.654;23.370;2023-05-12T11:35:14;94859.97;;;13.28;56.46
36932;BME280;22847;42.654;23.370;2023-05-12T11:37:41;94984.84;;;14.21;56.07
36932;BME280;22847;42.654;23.370;2023-05-12T11:40:21;94976.50;;;14.25;55.38
36932;BME280;22847;42.654;23.370;2023-05-12T11:42:48;94989.38;;;14.45;54.79
36932;BME280;22847;42.654;23.370;2023-05-12T11:45:27;94982.00;;;14.48;54.08
36932;BME280;22847;42.654;23.370;2023-05-12T11:48:11;94963.50;;;14.08;55.89
36932;BME280;22847;42.654;23.370;2023-05-12T11:50:43;94998.75;;;14.13;56.31
36932;BME280;22847;42.654;23.370;2023-05-12T11:53:12;94876.16;;;13.23;56.19
36932;BME280;22847;42.654;23.370;2023-05-12T11:55:52;95017.41;;;14.10;55.34
36932;BME280;22847;42.654;23.370;2023-05-12T11:58:23;94872.88;;;13.55;55.37
36932;BME280;22847;42.654;23.370;2023-05-12T12:00:51;95001.84;;;14.51;55.67
36932;BME280;22847;42.654;23.370;2023-05-12T12:03:17;94881.06;;;13.60;56.47
36932;BME280;22847;42.654;23.370;2023-05-12T12:05:55;94967.13;;;14.23;55.25
36932;BME280;22847;42.654;23.370;2023-05-12T12:08:21;94745.59;;;13.03;55.25
36932;BME280;22847;42.654;23.370;2023-05-12T12:10:46;95008.56;;;14.45;55.33
36932;BME280;22847;42.654;23.370;2023-05-12T12:13:18;94999.06;;;14.52;55.55
36932;BME280;22847;42.654;23.370;2023-05-12T12:15:44;95008.66;;;13.94;56.71
36932;BME280;22847;42.654;23.370;2023-05-12T12:18:10;95027.81;;;14.28;55.33
36932;BME280;22847;42.654;23.370;2023-05-12T12:20:35;95007.16;;;14.25;55.15
36932;BME280;22847;42.654;23.370;2023-05-12T12:23:00;95012.41;;;14.33;56.32
36932;BME280;22847;42.654;23.370;2023-05-12T12:25:26;94987.00;;;14.25;55.88
36932;BME280;22847;42.654;23.370;2023-05-12T12:27:51;95010.66;;;14.42;55.48
36932;BME280;22847;42.654;23.370;2023-05-12T12:30:17;95005.50;;;14.24;55.27
36932;BME280;22847;42.654;23.370;2023-05-12T12:32:43;94987.81;;;14.26;55.21
36932;BME280;22847;42.654;23.370;2023-05-12T12:35:09;94979.75;;;14.19;55.06
36932;BME280;22847;42.654;23.370;2023-05-12T12:37:35;94795.22;;;12.78;55.90
36932;BME280;22847;42.654;23.370;2023-05-12T12:40:02;95007.00;;;13.93;55.42
36932;BME280;22847;42.654;23.370;2023-05-12T12:42:33;94988.94;;;13.81;55.81
36932;BME280;22847;42.654;23.370;2023-05-12T12:44:58;94888.38;;;13.49;55.61
36932;BME280;22847;42.654;23.370;2023-05-12T12:47:24;94901.00;;;13.53;55.07
36932;BME280;22847;42.654;23.370;2023-05-12T12:49:49;95009.41;;;14.20;54.61
36932;BME280;22847;42.654;23.370;2023-05-12T12:52:15;95010.38;;;14.11;54.83